Time;durP1;ratioP1;P1;durP2;ratioP2;P2;SDS_P1;SDS_P2;PMS_P1;PMS_P2;Temp;Humidity;BMP_temperature;BMP_pressure;BME280_temperature;BME280_humidity;BME280_pressure;Samples;Min_cycle;Max_cycle;Signal;HPM_P1;HPM_P2
2023/08/09 00:03:36;;;;;;;17.00;10.35;;;;;;;13.55;100.00;101012.97;10421381;28;20124;-75
2023/08/09 00:08:36;;;;;;;15.15;10.52;;;;;;;13.59;100.00;101010.50;10384371;28;20392;-76
2023/08/09 00:13:37;;;;;;;15.07;10.27;;;;;;;13.57;100.00;101013.91;10401211;28;20045;-76
2023/08/09 00:18:38;;;;;;;14.25;11.05;;;;;;;13.56;100.00;101025.25;10404825;28;20481;-77
2023/08/09 00:23:39;;;;;;;20.73;11.18;;;;;;;13.56;100.00;101033.16;10436369;28;20037;-76
2023/08/09 00:28:39;;;;;;;19.15;12.80;;;;;;;13.60;100.00;101040.31;10441829;28;20044;-75
2023/08/09 00:33:40;;;;;;;10.50;7.18;;;;;;;13.58;100.00;101052.50;10441436;28;20045;-75
2023/08/09 00:38:41;;;;;;;3.90;2.67;;;;;;;13.30;100.00;101064.56;10442819;28;20124;-75
2023/08/09 00:43:41;;;;;;;6.70;4.20;;;;;;;13.02;100.00;101068.69;10440985;28;20128;-76
2023/08/09 00:48:42;;;;;;;5.35;2.90;;;;;;;12.82;100.00;101071.41;10442410;28;20041;-75
2023/08/09 00:53:42;;;;;;;6.97;3.72;;;;;;;12.76;100.00;101085.19;10470900;28;20362;-75
2023/08/09 00:58:43;;;;;;;6.50;2.92;;;;;;;12.74;100.00;101080.69;10465783;28;20047;-76
2023/08/09 01:03:43;;;;;;;7.95;4.35;;;;;;;12.68;100.00;101077.78;10482899;28;20083;-76
2023/08/09 01:08:56;;;;;;;9.52;4.90;;;;;;;12.58;100.00;101077.41;10474218;28;20051;-76
2023/08/09 01:13:56;;;;;;;6.75;4.00;;;;;;;12.53;100.00;101071.06;10497865;28;20055;-76
2023/08/09 01:18:57;;;;;;;6.95;4.65;;;;;;;12.46;100.00;101084.75;10470664;28;20041;-76
2023/08/09 01:23:57;;;;;;;7.63;4.85;;;;;;;12.36;100.00;101082.56;10481027;28;20560;-76
2023/08/09 01:28:58;;;;;;;8.80;4.85;;;;;;;12.29;100.00;101078.78;10514897;28;20524;-75
2023/08/09 01:33:58;;;;;;;7.47;4.78;;;;;;;12.26;100.00;101076.03;10486001;28;20040;-76
2023/08/09 01:39:07;;;;;;;10.25;5.53;;;;;;;12.20;100.00;101079.25;10448142;28;20426;-76
2023/08/09 01:44:08;;;;;;;8.75;6.53;;;;;;;12.19;100.00;101073.13;10501521;28;20556;-76
2023/08/09 01:49:12;;;;;;;9.80;5.85;;;;;;;12.21;100.00;101098.53;10478362;28;20044;-75
2023/08/09 01:54:13;;;;;;;7.72;5.18;;;;;;;12.18;100.00;101094.03;10469996;28;20029;-76
2023/08/09 01:59:14;;;;;;;10.98;6.70;;;;;;;12.16;100.00;101095.69;10471492;28;20488;-76
2023/08/09 02:04:15;;;;;;;7.15;5.38;;;;;;;12.11;100.00;101097.22;10488163;28;20071;-76
2023/08/09 02:09:15;;;;;;;10.75;6.55;;;;;;;12.08;100.00;101082.25;10476653;28;20045;-76
2023/08/09 02:14:16;;;;;;;9.88;5.80;;;;;;;12.06;100.00;101089.16;10471800;28;20036;-76
2023/08/09 02:19:17;;;;;;;10.30;6.78;;;;;;;12.04;100.00;101093.44;10486393;28;20498;-76
2023/08/09 02:24:17;;;;;;;11.57;6.85;;;;;;;12.05;100.00;101095.22;10504289;28;20123;-76
2023/08/09 02:29:18;;;;;;;13.88;7.80;;;;;;;12.05;100.00;101095.22;10487247;28;20040;-75
2023/08/09 02:34:19;;;;;;;7.72;5.55;;;;;;;12.02;100.00;101092.47;10488431;28;20072;-76
2023/08/09 02:39:20;;;;;;;10.18;6.55;;;;;;;11.98;100.00;101098.38;10485430;28;20048;-76
2023/08/09 02:44:20;;;;;;;11.73;7.90;;;;;;;11.97;100.00;101105.31;10476214;28;20052;-75
2023/08/09 02:49:21;;;;;;;10.85;6.75;;;;;;;11.99;100.00;101102.78;10468930;28;20400;-76
2023/08/09 02:54:21;;;;;;;11.32;6.90;;;;;;;11.96;100.00;101113.13;10486821;28;20127;-76
2023/08/09 02:59:22;;;;;;;12.13;7.05;;;;;;;11.96;100.00;101119.25;10491931;28;20040;-76
2023/08/09 03:04:22;;;;;;;13.30;7.82;;;;;;;11.99;100.00;101124.66;10470879;28;20040;-76
2023/08/09 03:09:23;;;;;;;10.88;6.45;;;;;;;11.97;100.00;101128.94;10458175;28;20648;-76
2023/08/09 03:14:23;;;;;;;11.57;7.82;;;;;;;11.94;100.00;101125.28;10465176;28;20171;-76
2023/08/09 03:19:24;;;;;;;13.50;8.15;;;;;;;11.85;100.00;101125.75;10459322;28;20067;-76
2023/08/09 03:24:25;;;;;;;10.27;7.15;;;;;;;11.73;100.00;101119.09;10477225;28;20036;-76
2023/08/09 03:29:25;;;;;;;12.13;8.07;;;;;;;11.59;100.00;101133.28;10485055;28;20483;-78
2023/08/09 03:34:26;;;;;;;14.35;8.68;;;;;;;11.51;100.00;101135.53;10483618;28;20495;-77
2023/08/09 03:39:26;;;;;;;12.57;7.75;;;;;;;11.30;100.00;101138.91;10483336;28;20044;-77
2023/08/09 03:44:27;;;;;;;11.32;7.88;;;;;;;11.09;100.00;101137.84;10485973;28;20037;-78
2023/08/09 03:49:27;;;;;;;13.40;7.97;;;;;;;10.96;100.00;101144.19;10474284;28;20392;-77
2023/08/09 03:54:29;;;;;;;13.30;8.73;;;;;;;10.90;100.00;101146.50;10515294;28;20139;-76
2023/08/09 03:59:29;;;;;;;11.33;8.13;;;;;;;10.82;100.00;101164.44;10466301;28;20036;-77
2023/08/09 04:04:30;;;;;;;12.18;8.63;;;;;;;10.70;100.00;101172.53;10476172;28;20045;-76
2023/08/09 04:09:30;;;;;;;113.03;14.50;;;;;;;10.66;100.00;101183.69;10424247;28;20384;-77
2023/08/09 04:14:31;;;;;;;36.08;10.00;;;;;;;10.65;100.00;101193.25;10444990;28;20037;-77
2023/08/09 04:19:31;;;;;;;20.77;8.60;;;;;;;10.68;100.00;101188.19;10441068;28;20072;-77
2023/08/09 04:24:32;;;;;;;21.88;10.55;;;;;;;10.63;100.00;101192.28;10441791;28;20110;-76
2023/08/09 04:29:32;;;;;;;20.20;9.88;;;;;;;10.62;100.00;101200.03;10462856;28;20044;-76
2023/08/09 04:34:34;;;;;;;16.13;10.18;;;;;;;10.60;100.00;101197.34;10443433;28;20045;-76
2023/08/09 04:39:35;;;;;;;15.40;9.60;;;;;;;10.58;100.00;101194.66;10441635;28;20045;-76
2023/08/09 04:44:35;;;;;;;14.90;10.20;;;;;;;10.57;100.00;101198.06;10436338;28;20046;-77
2023/08/09 04:49:37;;;;;;;16.85;9.82;;;;;;;10.57;100.00;101194.56;10409444;28;20456;-77
2023/08/09 04:54:38;;;;;;;14.85;9.93;;;;;;;10.62;100.00;101202.66;10479591;28;20123;-77
2023/08/09 04:59:39;;;;;;;17.20;10.35;;;;;;;10.67;100.00;101211.66;10475000;28;20694;-76
2023/08/09 05:04:40;;;;;;;16.20;9.75;;;;;;;10.75;100.00;101220.81;10465465;28;20036;-75
2023/08/09 05:09:41;;;;;;;13.52;9.90;;;;;;;10.87;100.00;101212.72;10455528;28;20397;-77
2023/08/09 05:14:41;;;;;;;11.50;7.97;;;;;;;11.07;100.00;101212.84;10449914;28;20480;-78
2023/08/09 05:19:42;;;;;;;11.85;7.47;;;;;;;11.23;100.00;101219.75;10483537;28;20089;-77
2023/08/09 05:24:43;;;;;;;12.25;7.68;;;;;;;11.51;100.00;101236.84;10506211;28;20036;-78
2023/08/09 05:29:44;;;;;;;13.98;6.85;;;;;;;11.67;100.00;101228.03;10488022;28;20361;-78
2023/08/09 05:34:44;;;;;;;9.60;7.20;;;;;;;11.94;100.00;101236.31;10488340;28;20032;-77
2023/08/09 05:39:45;;;;;;;12.82;8.52;;;;;;;12.15;100.00;101226.00;10486794;28;20531;-77
2023/08/09 05:44:46;;;;;;;18.65;12.80;;;;;;;12.45;100.00;101227.34;10449249;28;20033;-78
2023/08/09 05:49:46;;;;;;;18.02;12.25;;;;;;;13.16;100.00;101240.97;10479462;28;20051;-78
2023/08/09 05:54:48;;;;;;;15.40;10.45;;;;;;;14.02;100.00;101255.91;10487311;28;20047;-78
2023/08/09 05:59:48;;;;;;;13.65;9.05;;;;;;;14.41;100.00;101262.69;10477680;28;20044;-76
2023/08/09 06:04:49;;;;;;;11.23;8.23;;;;;;;14.31;100.00;101258.78;10468130;28;20041;-77
2023/08/09 06:09:49;;;;;;;8.68;5.80;;;;;;;14.39;100.00;101256.47;10484140;28;20736;-76
2023/08/09 06:14:50;;;;;;;10.30;6.43;;;;;;;14.38;100.00;101247.66;10442195;28;20123;-76
2023/08/09 06:19:50;;;;;;;7.82;6.22;;;;;;;14.82;100.00;101250.19;10438233;28;20040;-76
2023/08/09 06:24:51;;;;;;;9.13;5.45;;;;;;;15.54;100.00;101245.63;10486882;28;20041;-76
2023/08/09 06:29:51;;;;;;;6.35;5.38;;;;;;;15.96;100.00;101236.47;10486152;28;20462;-77
2023/08/09 06:34:52;;;;;;;4.88;3.75;;;;;;;16.61;100.00;101189.03;10489242;28;20081;-77
2023/08/09 06:39:53;;;;;;;9.20;4.77;;;;;;;16.90;100.00;101175.72;10519015;28;20036;-78
2023/08/09 06:44:53;;;;;;;4.53;3.70;;;;;;;17.13;100.00;101174.59;10503283;28;20719;-78
2023/08/09 06:49:54;;;;;;;6.40;4.43;;;;;;;17.99;100.00;101197.78;10447308;28;20124;-77
2023/08/09 06:54:54;;;;;;;7.07;4.30;;;;;;;18.45;100.00;101204.09;10464805;28;20036;-78
2023/08/09 06:59:56;;;;;;;7.07;4.40;;;;;;;17.98;100.00;101210.16;10478403;28;20511;-77
2023/08/09 07:05:00;;;;;;;5.95;4.20;;;;;;;19.03;100.00;101218.50;10480889;28;20029;-78
2023/08/09 07:10:00;;;;;;;6.70;4.03;;;;;;;20.55;100.00;101231.47;10481620;28;20132;-78
2023/08/09 07:15:01;;;;;;;4.50;3.57;;;;;;;21.85;100.00;101262.06;10460110;28;20045;-77
2023/08/09 07:20:06;;;;;;;8.33;3.43;;;;;;;21.89;100.00;101267.41;10485004;28;20036;-76
2023/08/09 07:25:07;;;;;;;4.80;2.70;;;;;;;23.30;100.00;101278.72;10481750;28;20492;-76
2023/08/09 07:30:09;;;;;;;7.13;4.18;;;;;;;22.14;100.00;101295.09;10460104;28;20051;-77
2023/08/09 07:35:10;;;;;;;5.97;4.18;;;;;;;18.97;100.00;101288.22;10473564;28;20029;-77
2023/08/09 07:40:14;;;;;;;6.78;4.63;;;;;;;19.54;100.00;101280.41;10469566;28;20035;-77
2023/08/09 07:45:15;;;;;;;8.27;4.43;;;;;;;20.30;100.00;101286.06;10445722;28;20043;-77
2023/08/09 07:50:15;;;;;;;6.13;4.33;;;;;;;20.47;100.00;101308.44;10476543;28;20075;-77
2023/08/09 07:55:17;;;;;;;8.67;4.90;;;;;;;19.69;100.00;101302.78;10467462;28;20064;-77
2023/08/09 08:00:18;;;;;;;5.18;4.25;;;;;;;20.14;100.00;101315.06;10472322;28;20164;-77
2023/08/09 08:05:19;;;;;;;11.80;4.93;;;;;;;19.22;100.00;101325.84;10468632;28;20040;-77
2023/08/09 08:10:19;;;;;;;9.10;6.33;;;;;;;17.87;100.00;101321.09;10436284;28;20103;-76
2023/08/09 08:15:22;;;;;;;6.87;4.90;;;;;;;17.86;100.00;101324.59;10431182;28;20396;-77
2023/08/09 08:20:26;;;;;;;6.55;4.63;;;;;;;20.05;100.00;101310.50;10431528;28;20063;-75
2023/08/09 08:25:27;;;;;;;6.40;3.70;;;;;;;23.25;100.00;101358.81;10448743;28;20462;-77
2023/08/09 08:30:27;;;;;;;10.27;6.03;;;;;;;24.90;100.00;101369.47;10434978;28;20405;-76
2023/08/09 08:35:33;;;;;;;8.57;5.00;;;;;;;26.03;100.00;101376.81;10418758;28;20040;-76
2023/08/09 08:40:34;;;;;;;4.35;2.63;;;;;;;26.14;100.00;101397.28;10469393;28;20503;-77
2023/08/09 08:45:36;;;;;;;5.83;3.60;;;;;;;25.94;100.00;101401.94;10490341;28;20036;-77
2023/08/09 08:50:37;;;;;;;6.22;3.17;;;;;;;26.16;100.00;101395.53;10451764;28;20037;-77
2023/08/09 08:55:39;;;;;;;6.20;4.57;;;;;;;27.22;100.00;101389.91;10485966;28;20037;-76
2023/08/09 09:00:39;;;;;;;;;;;;;;;26.43;100.00;101399.75;10469277;28;20044;-76
2023/08/09 09:05:39;;;;;;;5.17;2.77;;;;;;;26.05;100.00;101401.84;10491319;28;20364;-76
2023/08/09 09:10:45;;;;;;;5.53;3.13;;;;;;;27.42;100.00;101405.72;10468394;28;20059;-76
2023/08/09 09:15:45;;;;;;;5.40;3.38;;;;;;;26.55;100.00;101409.44;10489482;28;20708;-76
2023/08/09 09:20:46;;;;;;;7.07;3.67;;;;;;;27.40;100.00;101413.84;10473191;28;20051;-76
2023/08/09 09:25:46;;;;;;;4.00;2.83;;;;;;;28.02;100.00;101403.94;10487912;28;20419;-76
2023/08/09 09:30:56;;;;;;;7.50;2.83;;;;;;;25.18;100.00;101425.59;10476188;28;20037;-77
2023/08/09 09:35:57;;;;;;;5.35;3.13;;;;;;;25.40;100.00;101414.78;10466600;28;20048;-76
2023/08/09 09:40:57;;;;;;;8.50;3.17;;;;;;;26.94;100.00;101428.72;10487246;28;20068;-76
2023/08/09 09:45:58;;;;;;;4.93;3.37;;;;;;;27.78;96.10;101440.22;10488033;28;20132;-77
2023/08/09 09:51:02;;;;;;;5.60;3.53;;;;;;;28.26;89.93;101429.59;10431173;28;20132;-77
2023/08/09 09:56:03;;;;;;;3.90;2.83;;;;;;;26.25;100.00;101438.34;10468570;28;20036;-77
2023/08/09 10:01:03;;;;;;;5.23;3.47;;;;;;;23.42;100.00;101441.63;10483559;28;20045;-77
2023/08/09 10:06:05;;;;;;;5.87;3.30;;;;;;;21.87;100.00;101442.34;10463860;28;20090;-77
2023/08/09 10:11:06;;;;;;;4.80;3.22;;;;;;;24.76;100.00;101441.78;10484159;28;20120;-76
2023/08/09 10:16:07;;;;;;;7.70;3.50;;;;;;;24.66;100.00;101439.97;10469183;28;20051;-78
2023/08/09 10:21:09;;;;;;;6.83;4.13;;;;;;;24.69;100.00;101437.31;10475445;28;20119;-77
2023/08/09 10:26:09;;;;;;;4.82;2.75;;;;;;;26.05;100.00;101422.41;10473594;28;20488;-76
2023/08/09 10:31:10;;;;;;;3.85;2.72;;;;;;;26.75;100.00;101421.75;10454827;28;20033;-76
2023/08/09 10:36:13;;;;;;;4.50;1.80;;;;;;;26.56;95.16;101424.66;10451860;28;20051;-77
2023/08/09 10:41:14;;;;;;;6.18;2.00;;;;;;;27.51;97.29;101432.50;10479148;28;20036;-76
2023/08/09 10:46:19;;;;;;;4.80;2.50;;;;;;;27.16;89.71;101443.72;10478930;28;20116;-77
2023/08/09 10:51:22;;;;;;;3.03;1.45;;;;;;;27.58;94.18;101456.63;10498325;28;20578;-76
2023/08/09 10:56:39;;;;;;;6.80;3.33;;;;;;;26.93;93.92;101463.69;10467744;28;20620;-76
2023/08/09 11:01:43;;;;;;;7.15;3.28;;;;;;;23.88;100.00;101469.38;10445735;28;20037;-77
2023/08/09 11:06:45;;;;;;;162.50;118.65;;;;;;;26.27;100.00;101452.66;10432209;28;20106;-76
2023/08/09 11:11:46;;;;;;;5.82;3.88;;;;;;;27.57;95.22;101465.59;10429616;28;20053;-77
2023/08/09 11:16:47;;;;;;;6.60;3.53;;;;;;;25.48;100.00;101464.75;10417280;28;20033;-78
2023/08/09 11:21:49;;;;;;;6.47;3.00;;;;;;;25.14;96.33;101464.88;10436793;28;20030;-78
2023/08/09 11:26:53;;;;;;;7.00;2.80;;;;;;;23.02;100.00;101463.69;10433000;28;20044;-78
2023/08/09 11:31:57;;;;;;;8.18;4.53;;;;;;;24.25;100.00;101469.44;10441939;28;20059;-78
2023/08/09 11:36:58;;;;;;;13.40;8.43;;;;;;;23.13;100.00;101474.41;10414744;28;20044;-77
2023/08/09 11:41:59;;;;;;;8.13;3.30;;;;;;;25.63;100.00;101462.88;10437028;28;20508;-76
2023/08/09 11:47:01;;;;;;;5.87;2.70;;;;;;;27.25;100.00;101463.28;10433606;28;20127;-76
2023/08/09 11:52:01;;;;;;;4.70;2.85;;;;;;;24.33;100.00;101475.69;10431153;28;20048;-75
2023/08/09 11:57:05;;;;;;;3.83;2.37;;;;;;;24.05;100.00;101473.00;10423809;28;20052;-77
2023/08/09 12:02:06;;;;;;;6.90;2.30;;;;;;;25.03;100.00;101464.91;10452647;28;20057;-77
2023/08/09 12:07:09;;;;;;;9.03;2.40;;;;;;;27.09;91.11;101473.34;10439685;28;20102;-78
2023/08/09 12:12:14;;;;;;;2.95;2.03;;;;;;;26.39;95.38;101479.38;10406337;28;20108;-77
2023/08/09 12:17:24;;;;;;;7.80;3.05;;;;;;;26.62;88.42;101482.75;10437373;28;20051;-77
2023/08/09 12:22:25;;;;;;;4.50;2.37;;;;;;;27.91;71.99;101475.84;10467212;28;20102;-78
2023/08/09 12:27:26;;;;;;;4.13;1.80;;;;;;;28.35;71.72;101485.03;10436792;28;20107;-77
2023/08/09 12:32:28;;;;;;;5.72;3.00;;;;;;;28.36;68.48;101481.44;10414232;28;20478;-77
2023/08/09 12:37:29;;;;;;;5.13;2.95;;;;;;;27.73;73.74;101487.78;10422538;28;20084;-77
2023/08/09 12:42:29;;;;;;;4.40;2.67;;;;;;;28.54;68.48;101482.03;10436721;28;20123;-77
2023/08/09 12:47:30;;;;;;;5.97;4.00;;;;;;;28.54;66.76;101490.09;10436379;28;20511;-78
2023/08/09 12:52:30;;;;;;;13.43;4.27;;;;;;;28.28;67.81;101483.38;10428865;28;20041;-77
2023/08/09 12:57:31;;;;;;;4.60;2.73;;;;;;;27.95;66.16;101493.72;10437769;28;20443;-80
2023/08/09 13:02:31;;;;;;;8.00;2.93;;;;;;;27.51;85.39;101497.03;10431648;28;20051;-79
2023/08/09 13:07:33;;;;;;;6.47;3.97;;;;;;;27.17;70.20;101483.97;10440895;28;20037;-79
2023/08/09 13:12:34;;;;;;;13.25;8.85;;;;;;;27.39;67.66;101495.38;10423081;28;20132;-79
2023/08/09 13:17:34;;;;;;;8.03;3.97;;;;;;;27.61;60.20;101487.06;10437351;28;20060;-79
2023/08/09 13:22:35;;;;;;;4.77;2.57;;;;;;;27.53;70.22;101488.94;10439732;28;20071;-79
2023/08/09 13:27:36;;;;;;;4.27;2.60;;;;;;;25.50;77.76;101497.78;10440035;28;20056;-80
2023/08/09 13:32:36;;;;;;;4.35;2.65;;;;;;;25.82;94.38;101482.44;10430332;28;20499;-79
2023/08/09 13:37:40;;;;;;;4.13;3.03;;;;;;;27.29;75.29;101488.31;10449888;28;20036;-79
2023/08/09 13:42:42;;;;;;;5.20;2.88;;;;;;;24.63;80.84;101497.97;10447686;28;20473;-79
2023/08/09 13:47:42;;;;;;;3.80;2.70;;;;;;;23.07;100.00;101502.88;10442415;28;20041;-77
2023/08/09 13:52:43;;;;;;;4.47;2.10;;;;;;;24.77;100.00;101497.09;10440107;28;20114;-79
2023/08/09 13:57:43;;;;;;;5.03;2.63;;;;;;;25.88;94.47;101502.97;10433277;28;20037;-78
2023/08/09 14:02:45;;;;;;;5.97;2.30;;;;;;;26.33;88.69;101495.50;10462535;28;20044;-79
2023/08/09 14:07:45;;;;;;;;;;;;;;;26.14;90.07;101494.78;10434877;28;20045;-78
2023/08/09 14:12:46;;;;;;;3.27;2.50;;;;;;;24.08;100.00;101497.94;10442280;28;19933;-77
2023/08/09 14:17:47;;;;;;;4.73;2.57;;;;;;;22.94;100.00;101494.78;10444394;28;20350;-78
2023/08/09 14:22:48;;;;;;;6.10;3.30;;;;;;;22.06;100.00;101505.59;10405344;28;20045;-78
2023/08/09 14:27:48;;;;;;;7.90;3.03;;;;;;;24.48;100.00;101497.97;10460771;28;20287;-77
2023/08/09 14:32:49;;;;;;;3.83;3.10;;;;;;;25.51;94.33;101509.41;10411634;28;20045;-78
2023/08/09 14:37:49;;;;;;;5.77;2.93;;;;;;;25.78;94.54;101507.50;10440539;28;20131;-77
2023/08/09 14:42:50;;;;;;;5.43;3.83;;;;;;;26.10;92.34;101515.31;10411321;28;20095;-77
2023/08/09 14:47:50;;;;;;;3.50;2.67;;;;;;;25.91;92.38;101513.66;10416022;28;20551;-79
2023/08/09 14:52:53;;;;;;;4.90;3.37;;;;;;;26.36;93.50;101511.59;10398151;28;20110;-77
2023/08/09 14:57:55;;;;;;;5.35;3.17;;;;;;;25.48;93.87;101514.78;10407527;28;20128;-80
2023/08/09 15:02:55;;;;;;;8.47;3.37;;;;;;;24.89;100.00;101523.84;10425498;28;20500;-79
2023/08/09 15:07:56;;;;;;;7.13;3.93;;;;;;;24.85;100.00;101519.38;10412320;28;20059;-82
2023/08/09 15:12:56;;;;;;;5.73;2.90;;;;;;;24.45;100.00;101533.66;10408542;28;20108;-85
2023/08/09 15:18:01;;;;;;;5.72;3.17;;;;;;;25.29;100.00;101533.59;10440662;28;20075;-79
2023/08/09 15:23:02;;;;;;;5.45;3.00;;;;;;;25.12;100.00;101528.25;10453410;28;20480;-79
2023/08/09 15:28:03;;;;;;;7.83;1.97;;;;;;;23.54;100.00;101533.38;10456400;28;20044;-77
2023/08/09 15:33:04;;;;;;;4.43;2.30;;;;;;;23.94;100.00;101544.22;10457688;28;20051;-78
2023/08/09 15:38:05;;;;;;;3.00;1.63;;;;;;;22.96;100.00;101541.06;10459418;28;20037;-78
2023/08/09 15:43:06;;;;;;;4.93;1.80;;;;;;;22.04;100.00;101546.44;10461225;28;20504;-78
2023/08/09 15:48:07;;;;;;;3.97;2.03;;;;;;;21.96;100.00;101547.22;10477821;28;20045;-79
2023/08/09 15:53:07;;;;;;;4.27;1.70;;;;;;;21.90;100.00;101564.94;10436891;28;20492;-78
2023/08/09 15:58:08;;;;;;;5.13;2.13;;;;;;;21.51;100.00;101549.34;10454363;28;20067;-79
2023/08/09 16:03:09;;;;;;;;;;;;;;;21.46;100.00;101556.38;10415305;28;20049;-78
2023/08/09 16:08:10;;;;;;;8.32;1.88;;;;;;;21.35;100.00;101558.88;10418321;28;19936;-78
2023/08/09 16:13:11;;;;;;;3.23;1.57;;;;;;;21.03;100.00;101564.63;10440086;28;20055;-78
2023/08/09 16:18:11;;;;;;;4.63;3.03;;;;;;;20.79;100.00;101568.66;10420707;28;20041;-78
2023/08/09 16:23:12;;;;;;;3.08;1.60;;;;;;;20.63;100.00;101571.91;10418274;28;20459;-78
2023/08/09 16:28:13;;;;;;;2.83;1.60;;;;;;;20.44;100.00;101568.94;10409554;28;20056;-77
2023/08/09 16:33:13;;;;;;;6.27;1.77;;;;;;;20.29;100.00;101569.56;10458612;28;20048;-78
2023/08/09 16:38:14;;;;;;;3.90;1.30;;;;;;;20.09;100.00;101582.44;10466875;28;20392;-78
2023/08/09 16:43:14;;;;;;;4.78;1.55;;;;;;;20.06;100.00;101577.06;10457164;28;20045;-78
2023/08/09 16:48:15;;;;;;;2.65;1.25;;;;;;;19.86;100.00;101585.50;10468301;28;20120;-77
2023/08/09 16:53:15;;;;;;;2.67;1.48;;;;;;;19.72;100.00;101585.22;10455617;28;20107;-77
2023/08/09 16:58:18;;;;;;;3.35;1.13;;;;;;;19.53;100.00;101586.56;10450118;28;20071;-77
2023/08/09 17:03:19;;;;;;;5.85;1.50;;;;;;;19.42;100.00;101594.31;10467599;28;20548;-77
2023/08/09 17:08:19;;;;;;;2.97;1.63;;;;;;;19.25;100.00;101598.34;10466141;28;20045;-78
2023/08/09 17:13:20;;;;;;;5.13;1.63;;;;;;;18.91;100.00;101587.75;10467160;28;20399;-78
2023/08/09 17:18:20;;;;;;;4.65;1.77;;;;;;;18.60;100.00;101598.50;10485518;28;20049;-78
2023/08/09 17:23:22;;;;;;;4.70;1.27;;;;;;;18.33;100.00;101602.19;10430756;28;20049;-79
2023/08/09 17:28:23;;;;;;;8.10;2.85;;;;;;;18.17;100.00;101597.34;10423426;28;20520;-78
2023/08/09 17:33:23;;;;;;;2.70;1.70;;;;;;;18.03;100.00;101596.94;10419644;28;20079;-78
2023/08/09 17:38:25;;;;;;;5.57;2.33;;;;;;;17.89;100.00;101602.69;10408671;28;20433;-79
2023/08/09 17:43:25;;;;;;;10.48;3.00;;;;;;;17.93;100.00;101606.34;10423681;28;20075;-78
2023/08/09 17:48:26;;;;;;;8.80;2.10;;;;;;;18.01;100.00;101607.50;10414808;28;20046;-78
2023/08/09 17:53:26;;;;;;;5.28;1.63;;;;;;;18.00;100.00;101610.06;10471133;28;20119;-78
2023/08/09 17:58:28;;;;;;;5.10;1.75;;;;;;;18.00;100.00;101616.28;10465145;28;20040;-78
2023/08/09 18:03:28;;;;;;;3.47;1.40;;;;;;;18.03;100.00;101621.69;10467708;28;20041;-78
2023/08/09 18:08:29;;;;;;;3.30;1.52;;;;;;;18.05;100.00;101629.66;10472556;28;20059;-77
2023/08/09 18:13:29;;;;;;;4.05;1.98;;;;;;;17.96;100.00;101626.69;10496891;28;20542;-77
2023/08/09 18:18:30;;;;;;;4.50;1.45;;;;;;;17.83;100.00;101633.41;10459845;28;20037;-79
2023/08/09 18:23:30;;;;;;;8.68;2.88;;;;;;;17.75;100.00;101638.44;10470413;28;20043;-79
2023/08/09 18:28:31;;;;;;;3.17;1.90;;;;;;;17.77;100.00;101639.38;10461432;28;20464;-79
2023/08/09 18:33:32;;;;;;;4.82;2.15;;;;;;;17.70;100.00;101648.91;10463802;28;20028;-78
2023/08/09 18:38:34;;;;;;;5.50;2.30;;;;;;;17.52;100.00;101662.44;10463180;28;20036;-78
2023/08/09 18:43:34;;;;;;;8.48;1.67;;;;;;;17.32;100.00;101656.53;10474362;28;20032;-78
2023/08/09 18:48:35;;;;;;;4.90;2.10;;;;;;;16.91;100.00;101662.19;10464486;28;20039;-78
2023/08/09 18:53:36;;;;;;;7.38;3.05;;;;;;;16.53;100.00;101673.22;10455273;28;20131;-78
2023/08/09 18:58:36;;;;;;;4.97;1.85;;;;;;;16.26;100.00;101667.81;10464401;28;20093;-78
2023/08/09 19:03:37;;;;;;;4.53;2.05;;;;;;;16.16;100.00;101674.53;10448513;28;20041;-78
2023/08/09 19:08:37;;;;;;;4.93;1.85;;;;;;;16.05;100.00;101676.75;10427241;28;20036;-77
2023/08/09 19:13:38;;;;;;;9.88;3.47;;;;;;;15.97;100.00;101680.81;10417814;28;20091;-78
2023/08/09 19:18:38;;;;;;;6.63;1.80;;;;;;;15.87;100.00;101682.22;10397078;28;20047;-77
2023/08/09 19:23:39;;;;;;;7.78;1.73;;;;;;;15.75;100.00;101687.88;10422555;28;20053;-78
2023/08/09 19:28:40;;;;;;;8.73;2.25;;;;;;;15.62;100.00;101686.50;10447933;28;20536;-79
2023/08/09 19:33:40;;;;;;;6.47;2.08;;;;;;;15.49;100.00;101693.00;10421291;28;20033;-78
2023/08/09 19:38:41;;;;;;;6.57;2.65;;;;;;;15.40;100.00;101697.91;10424882;28;20140;-77
2023/08/09 19:43:41;;;;;;;5.03;2.00;;;;;;;15.29;100.00;101700.13;10454973;28;20070;-77
2023/08/09 19:48:42;;;;;;;6.43;1.88;;;;;;;15.23;100.00;101718.31;10451813;28;20481;-78
2023/08/09 19:53:43;;;;;;;3.97;2.47;;;;;;;15.20;100.00;101724.34;10459249;28;20127;-79
2023/08/09 19:58:43;;;;;;;5.25;1.83;;;;;;;15.17;100.00;101724.22;10471670;28;20024;-77
2023/08/09 20:03:44;;;;;;;3.60;1.65;;;;;;;15.07;100.00;101727.28;10448872;28;20049;-77
2023/08/09 20:08:44;;;;;;;6.45;2.15;;;;;;;14.85;100.00;101734.28;10457867;28;20089;-78
2023/08/09 20:13:45;;;;;;;4.32;1.95;;;;;;;14.52;100.00;101729.25;10452626;28;20036;-78
2023/08/09 20:18:46;;;;;;;7.28;2.10;;;;;;;14.12;100.00;101735.31;10391519;28;20063;-78
2023/08/09 20:23:47;;;;;;;6.90;1.90;;;;;;;13.75;100.00;101738.00;10406400;28;20056;-77
2023/08/09 20:28:47;;;;;;;9.05;2.00;;;;;;;13.43;100.00;101734.69;10415465;28;20515;-77
2023/08/09 20:33:48;;;;;;;4.85;1.70;;;;;;;13.10;100.00;101736.50;10460824;28;20128;-77
2023/08/09 20:38:49;;;;;;;16.98;2.92;;;;;;;12.89;100.00;101738.09;10465148;28;20547;-78
2023/08/09 20:43:49;;;;;;;5.40;2.30;;;;;;;12.68;100.00;101747.47;10465917;28;20056;-78
2023/08/09 20:48:50;;;;;;;3.25;1.88;;;;;;;12.42;100.00;101754.84;10454900;28;20043;-78
2023/08/09 20:53:51;;;;;;;6.40;2.80;;;;;;;12.20;100.00;101761.53;10480769;28;20044;-77
2023/08/09 20:58:52;;;;;;;6.47;2.17;;;;;;;12.01;100.00;101762.25;10455622;28;20456;-77
2023/08/09 21:03:52;;;;;;;4.15;2.22;;;;;;;11.77;100.00;101761.72;10454508;28;20127;-79
2023/08/09 21:08:53;;;;;;;3.97;2.30;;;;;;;11.56;100.00;101768.47;10450831;28;20048;-78
2023/08/09 21:13:53;;;;;;;7.50;2.60;;;;;;;11.45;100.00;101777.41;10482096;28;20477;-78
2023/08/09 21:18:54;;;;;;;6.20;2.72;;;;;;;11.41;100.00;101784.19;10450101;28;20137;-78
2023/08/09 21:23:54;;;;;;;7.47;2.47;;;;;;;11.31;100.00;101773.97;10408030;28;20053;-79
2023/08/09 21:28:55;;;;;;;5.25;2.22;;;;;;;11.19;100.00;101786.34;10404343;28;20049;-77
2023/08/09 21:33:55;;;;;;;4.28;2.38;;;;;;;11.07;100.00;101794.38;10411494;28;20041;-77
2023/08/09 21:38:56;;;;;;;5.22;2.38;;;;;;;10.91;100.00;101792.53;10418802;28;20041;-77
2023/08/09 21:43:56;;;;;;;6.38;2.60;;;;;;;10.72;100.00;101812.34;10392484;28;20056;-78
2023/08/09 21:48:57;;;;;;;10.05;2.40;;;;;;;10.62;100.00;101817.81;10431988;28;20051;-77
2023/08/09 21:53:58;;;;;;;4.60;1.77;;;;;;;10.50;100.00;101818.84;10423026;28;20044;-77
2023/08/09 21:58:59;;;;;;;4.10;2.33;;;;;;;10.42;100.00;101822.69;10459468;28;20524;-77
2023/08/09 22:03:59;;;;;;;13.13;2.85;;;;;;;10.36;100.00;101819.66;10468018;28;20056;-77
2023/08/09 22:09:00;;;;;;;5.18;2.35;;;;;;;10.26;100.00;101818.16;10445199;28;20099;-77
2023/08/09 22:14:01;;;;;;;5.65;2.67;;;;;;;10.16;100.00;101816.66;10464680;28;20124;-78
2023/08/09 22:19:01;;;;;;;8.30;3.42;;;;;;;10.17;100.00;101818.47;10458287;28;20045;-77
2023/08/09 22:24:02;;;;;;;8.77;3.97;;;;;;;10.22;100.00;101832.75;10462228;28;20037;-77
2023/08/09 22:29:03;;;;;;;5.63;2.78;;;;;;;10.19;100.00;101826.44;10469711;28;20071;-77
2023/08/09 22:34:04;;;;;;;5.40;3.23;;;;;;;10.09;100.00;101824.91;10487112;28;20132;-77
2023/08/09 22:39:04;;;;;;;6.68;3.25;;;;;;;10.05;100.00;101842.13;10460632;28;20124;-77
2023/08/09 22:44:05;;;;;;;7.93;2.90;;;;;;;10.01;100.00;101850.59;10452722;28;20060;-77
2023/08/09 22:49:06;;;;;;;5.72;2.80;;;;;;;9.98;100.00;101855.63;10473941;28;20055;-77